createdAt,value
2022-10-15T00:01:39.413Z,2.90
2022-10-15T00:04:08.370Z,3.30
2022-10-15T00:06:35.960Z,3.10
2022-10-15T00:09:03.725Z,2.77
2022-10-15T00:11:31.609Z,2.53
2022-10-15T00:14:00.553Z,2.80
2022-10-15T00:16:29.431Z,2.40
2022-10-15T00:18:57.668Z,3.03
2022-10-15T00:21:26.729Z,2.70
2022-10-15T00:23:54.448Z,2.93
2022-10-15T00:26:24.022Z,3.63
2022-10-15T00:28:53.404Z,3.10
2022-10-15T00:31:23.089Z,3.80
2022-10-15T00:33:51.210Z,2.80
2022-10-15T00:36:20.483Z,5.50
2022-10-15T00:38:49.565Z,3.40
2022-10-15T00:41:20.713Z,3.50
2022-10-15T00:43:50.371Z,4.00
2022-10-15T00:46:21.880Z,5.23
2022-10-15T00:48:51.622Z,4.20
2022-10-15T00:51:20.492Z,5.13
2022-10-15T00:53:49.930Z,3.57
2022-10-15T00:56:19.052Z,3.80
2022-10-15T00:58:46.577Z,5.03
2022-10-15T01:01:14.267Z,5.67
2022-10-15T01:03:42.370Z,4.30
2022-10-15T01:06:09.860Z,4.63
2022-10-15T01:08:37.444Z,7.80
2022-10-15T01:11:14.432Z,4.20
2022-10-15T01:13:50.820Z,4.77
2022-10-15T01:16:21.634Z,7.20
2022-10-15T01:18:55.010Z,4.70
2022-10-15T01:21:24.178Z,6.00
2022-10-15T01:24:37.340Z,4.93
2022-10-15T01:27:20.098Z,9.10
2022-10-15T01:30:15.636Z,9.33
2022-10-15T01:32:49.498Z,9.00
2022-10-15T01:35:23.657Z,7.20
2022-10-15T01:37:55.231Z,6.17
2022-10-15T01:40:27.376Z,8.17
2022-10-15T01:42:57.882Z,6.27
2022-10-15T01:45:30.508Z,6.60
2022-10-15T01:48:01.019Z,7.23
2022-10-15T01:50:29.563Z,7.97
2022-10-15T01:52:58.345Z,8.27
2022-10-15T01:55:26.654Z,8.37
2022-10-15T01:57:56.475Z,7.77
2022-10-15T02:00:23.955Z,7.83
2022-10-15T02:02:51.462Z,9.23
2022-10-15T02:05:23.291Z,8.13
2022-10-15T02:07:56.464Z,8.67
2022-10-15T02:10:29.768Z,8.93
2022-10-15T02:13:03.721Z,8.03
2022-10-15T02:15:36.553Z,7.90
2022-10-15T02:18:07.978Z,7.57
2022-10-15T02:20:41.459Z,6.80
2022-10-15T02:23:11.815Z,8.13
2022-10-15T02:25:40.426Z,8.67
2022-10-15T02:28:09.116Z,10.07
2022-10-15T02:30:38.644Z,10.60
2022-10-15T02:33:06.149Z,7.57
2022-10-15T02:35:34.107Z,6.90
2022-10-15T02:38:05.541Z,9.67
2022-10-15T02:40:34.693Z,9.63
2022-10-15T02:43:06.009Z,8.97
2022-10-15T02:45:33.683Z,8.40
2022-10-15T02:48:01.211Z,8.87
2022-10-15T02:50:28.732Z,7.23
2022-10-15T02:52:56.263Z,8.17
2022-10-15T02:55:25.085Z,8.43
2022-10-15T02:57:52.555Z,8.17
2022-10-15T03:00:20.058Z,7.77
2022-10-15T03:02:47.541Z,10.57
2022-10-15T03:05:15.356Z,8.53
2022-10-15T03:07:42.806Z,10.87
2022-10-15T03:10:10.436Z,10.87
2022-10-15T03:12:39.204Z,11.07
2022-10-15T03:15:07.846Z,10.63
2022-10-15T03:17:35.308Z,10.27
2022-10-15T03:20:02.770Z,9.17
2022-10-15T03:22:30.245Z,9.20
2022-10-15T03:24:57.886Z,11.10
2022-10-15T03:27:25.807Z,12.23
2022-10-15T03:29:54.784Z,9.30
2022-10-15T03:32:22.264Z,10.63
2022-10-15T03:34:49.755Z,9.70
2022-10-15T03:37:17.228Z,10.63
2022-10-15T03:39:44.686Z,10.80
2022-10-15T03:42:12.130Z,10.23
2022-10-15T03:44:39.623Z,12.17
2022-10-15T03:47:08.445Z,11.70
2022-10-15T03:49:35.904Z,9.80
2022-10-15T03:52:03.871Z,10.20
2022-10-15T03:54:31.434Z,9.00
2022-10-15T03:56:59.706Z,11.97
2022-10-15T03:59:27.512Z,9.40
2022-10-15T04:01:54.931Z,12.97
2022-10-15T04:04:23.777Z,9.53
2022-10-15T04:06:51.244Z,10.03
2022-10-15T04:09:18.729Z,10.83
2022-10-15T04:11:46.163Z,15.03
2022-10-15T04:14:13.637Z,11.63
2022-10-15T04:16:41.112Z,10.07
2022-10-15T04:19:11.004Z,12.33
2022-10-15T04:21:40.297Z,9.13
2022-10-15T04:24:07.873Z,12.27
2022-10-15T04:26:35.535Z,9.70
2022-10-15T04:29:03.020Z,13.03
2022-10-15T04:31:30.605Z,13.17
2022-10-15T04:33:58.063Z,11.73
2022-10-15T04:36:25.547Z,15.10
2022-10-15T04:38:54.679Z,13.90
2022-10-15T04:41:22.292Z,10.50
2022-10-15T04:43:49.771Z,9.20
2022-10-15T04:46:17.387Z,14.10
2022-10-15T04:48:45.119Z,13.20
2022-10-15T04:51:14.091Z,12.20
2022-10-15T04:53:41.661Z,10.73
2022-10-15T04:56:13.700Z,12.10
2022-10-15T04:58:41.155Z,12.03
2022-10-15T05:01:11.999Z,13.30
2022-10-15T05:03:43.992Z,10.67
2022-10-15T05:06:15.105Z,10.57
2022-10-15T05:08:43.313Z,11.33
2022-10-15T05:11:14.540Z,11.33
2022-10-15T05:13:42.197Z,13.13
2022-10-15T05:16:11.094Z,11.30
2022-10-15T05:18:39.315Z,11.60
2022-10-15T05:21:07.115Z,10.00
2022-10-15T05:23:34.800Z,11.63
2022-10-15T05:26:02.931Z,9.70
2022-10-15T05:28:32.180Z,9.77
2022-10-15T05:31:04.925Z,8.50
2022-10-15T05:33:32.833Z,10.60
2022-10-15T05:36:09.309Z,7.73
2022-10-15T05:38:36.766Z,8.50
2022-10-15T05:41:04.458Z,7.13
2022-10-15T05:43:36.082Z,9.30
2022-10-15T05:46:06.509Z,7.43
2022-10-15T05:48:33.988Z,7.13
2022-10-15T05:51:02.318Z,8.37
2022-10-15T05:53:29.875Z,7.03
2022-10-15T05:55:58.601Z,6.40
2022-10-15T05:58:26.102Z,7.33
2022-10-15T06:00:58.445Z,11.30
2022-10-15T06:03:26.363Z,7.70
2022-10-15T06:05:54.020Z,6.60
2022-10-15T06:08:21.864Z,6.47
2022-10-15T06:10:49.900Z,6.00
2022-10-15T06:13:17.727Z,6.90
2022-10-15T06:15:46.692Z,9.30
2022-10-15T06:18:16.340Z,5.47
2022-10-15T06:20:44.234Z,6.63
2022-10-15T06:23:12.966Z,6.77
2022-10-15T06:25:40.486Z,7.17
2022-10-15T06:28:09.522Z,6.67
2022-10-15T06:30:36.975Z,6.43
2022-10-15T06:33:04.583Z,6.40
2022-10-15T06:35:35.251Z,5.50
2022-10-15T06:38:03.455Z,6.53
2022-10-15T06:40:31.297Z,6.37
2022-10-15T06:43:04.951Z,5.73
2022-10-15T06:45:32.416Z,4.33
2022-10-15T06:47:59.868Z,7.00
2022-10-15T06:50:27.441Z,4.60
2022-10-15T06:52:56.262Z,5.33
2022-10-15T06:55:23.813Z,7.30
2022-10-15T06:57:51.342Z,4.60
2022-10-15T07:00:19.079Z,6.00
2022-10-15T07:02:46.586Z,5.90
2022-10-15T07:05:14.148Z,5.20
2022-10-15T07:07:41.756Z,5.27
2022-10-15T07:10:11.071Z,5.70
2022-10-15T07:12:38.611Z,5.43
2022-10-15T07:15:07.403Z,5.53
2022-10-15T07:17:35.227Z,5.37
2022-10-15T07:20:02.695Z,4.10
2022-10-15T07:22:30.167Z,4.30
2022-10-15T07:24:57.691Z,6.20
2022-10-15T07:27:26.527Z,4.77
2022-10-15T07:29:53.982Z,3.57
2022-10-15T07:32:21.690Z,4.53
2022-10-15T07:34:49.691Z,4.30
2022-10-15T07:37:17.245Z,5.20
2022-10-15T07:39:44.960Z,6.23
2022-10-15T07:44:46.276Z,4.83
2022-10-15T07:47:13.898Z,4.53
2022-10-15T07:49:41.365Z,6.40
2022-10-15T07:52:09.347Z,3.73
2022-10-15T07:54:37.165Z,4.30
2022-10-15T07:57:06.882Z,4.80
2022-10-15T07:59:34.448Z,4.10
2022-10-15T08:02:03.301Z,4.93
2022-10-15T08:04:30.864Z,4.60
2022-10-15T08:06:58.444Z,3.33
2022-10-15T08:09:26.493Z,4.90
2022-10-15T08:11:53.965Z,3.60
2022-10-15T08:14:21.437Z,4.00
2022-10-15T08:16:48.884Z,4.00
2022-10-15T08:19:18.280Z,2.50
2022-10-15T08:21:47.491Z,3.87
2022-10-15T08:24:15.353Z,3.03
2022-10-15T08:26:43.007Z,4.70
2022-10-15T08:29:11.022Z,3.43
2022-10-15T08:31:38.570Z,3.27
2022-10-15T08:34:06.277Z,3.67
2022-10-15T08:36:35.119Z,4.00
2022-10-15T08:39:02.703Z,2.70
2022-10-15T08:41:34.028Z,3.87
2022-10-15T08:44:01.957Z,2.70
2022-10-15T08:46:35.013Z,2.00
2022-10-15T08:49:02.921Z,2.90
2022-10-15T08:51:38.600Z,2.60
2022-10-15T08:54:07.315Z,2.23
2022-10-15T08:56:37.560Z,2.33
2022-10-15T08:59:11.612Z,2.20
2022-10-15T09:01:45.749Z,2.33
2022-10-15T09:04:20.519Z,2.33
2022-10-15T09:06:49.972Z,3.97
2022-10-15T09:09:20.614Z,1.97
2022-10-15T09:11:57.280Z,2.30
2022-10-15T09:14:30.679Z,4.20
2022-10-15T09:17:01.141Z,2.50
2022-10-15T09:19:30.135Z,2.43
2022-10-15T09:22:02.084Z,3.20
2022-10-15T09:24:31.057Z,2.63
2022-10-15T09:27:06.641Z,2.83
2022-10-15T09:29:40.613Z,2.10
2022-10-15T09:32:17.092Z,3.40
2022-10-15T09:34:49.275Z,2.13
2022-10-15T09:37:22.335Z,2.17
2022-10-15T09:40:08.084Z,1.60
2022-10-15T09:42:37.493Z,1.67
2022-10-15T09:45:07.876Z,1.47
2022-10-15T09:47:36.928Z,2.87
2022-10-15T09:50:06.596Z,1.93
2022-10-15T09:52:48.610Z,1.37
2022-10-15T09:55:29.721Z,1.17
2022-10-15T09:57:59.467Z,1.70
2022-10-15T10:00:26.933Z,3.57
2022-10-15T10:03:06.948Z,2.40
2022-10-15T10:05:38.862Z,1.53
2022-10-15T10:08:11.898Z,1.57
2022-10-15T10:10:41.781Z,2.67
2022-10-15T10:13:23.382Z,1.83
2022-10-15T10:15:57.491Z,2.40
2022-10-15T10:18:27.124Z,2.67
2022-10-15T10:20:58.772Z,1.80
2022-10-15T10:23:31.881Z,4.13
2022-10-15T10:26:00.247Z,2.80
2022-10-15T10:28:31.510Z,1.80
2022-10-15T10:31:05.071Z,2.40
2022-10-15T10:33:36.314Z,1.97
2022-10-15T10:36:05.012Z,1.73
2022-10-15T10:38:35.686Z,1.93
2022-10-15T10:41:07.660Z,1.60
2022-10-15T10:43:39.157Z,2.23
2022-10-15T10:46:17.537Z,2.00
2022-10-15T10:48:46.423Z,1.30
2022-10-15T10:51:18.402Z,1.60
2022-10-15T10:53:54.179Z,1.67
2022-10-15T10:56:24.693Z,1.50
2022-10-15T10:58:58.523Z,1.00
2022-10-15T11:01:26.035Z,1.33
2022-10-15T11:03:53.628Z,1.77
2022-10-15T11:06:45.190Z,2.37
2022-10-15T11:09:36.981Z,6.67
2022-10-15T11:12:15.434Z,6.23
2022-10-15T11:14:49.956Z,2.23
2022-10-15T11:17:23.319Z,1.77
2022-10-15T11:20:13.164Z,1.33
2022-10-15T11:22:52.109Z,1.20
2022-10-15T11:25:26.401Z,1.20
2022-10-15T11:28:03.852Z,2.60
2022-10-15T11:30:39.739Z,1.70
2022-10-15T11:33:17.568Z,1.30
2022-10-15T11:35:54.415Z,2.20
2022-10-15T11:38:27.931Z,1.10
2022-10-15T11:41:06.799Z,1.40
2022-10-15T11:43:48.081Z,2.23
2022-10-15T11:46:21.314Z,2.33
2022-10-15T11:48:58.410Z,2.60
2022-10-15T11:51:33.069Z,2.10
2022-10-15T11:54:18.620Z,2.50
2022-10-15T11:56:48.793Z,3.03
2022-10-15T11:59:26.917Z,2.30
2022-10-15T12:01:57.614Z,2.20
2022-10-15T12:04:32.731Z,2.20
2022-10-15T12:07:03.022Z,1.83
2022-10-15T12:09:33.490Z,2.00
2022-10-15T12:12:06.691Z,4.00
2022-10-15T12:14:40.921Z,2.37
2022-10-15T12:17:15.205Z,12.80
2022-10-15T12:19:46.493Z,2.80
2022-10-15T12:22:13.985Z,3.07
2022-10-15T12:24:56.204Z,2.70
2022-10-15T12:27:35.712Z,3.10
2022-10-15T12:30:20.292Z,3.03
2022-10-15T12:32:48.805Z,2.60
2022-10-15T12:37:55.080Z,2.70
2022-10-15T12:40:28.593Z,3.30
2022-10-15T12:42:58.979Z,2.60
2022-10-15T12:45:40.207Z,2.30
2022-10-15T12:48:19.766Z,2.10
2022-10-15T12:50:47.257Z,6.90
2022-10-15T12:53:32.975Z,1.83
2022-10-15T12:56:14.524Z,2.90
2022-10-15T12:58:48.039Z,2.43
2022-10-15T13:01:30.978Z,3.97
2022-10-15T13:04:00.145Z,2.80
2022-10-15T13:06:40.099Z,3.17
2022-10-15T13:09:22.491Z,3.50
2022-10-15T13:14:34.051Z,2.80
2022-10-15T13:17:05.094Z,3.50
2022-10-15T13:19:36.121Z,1.70
2022-10-15T13:22:05.450Z,6.23
2022-10-15T13:24:41.739Z,2.10
2022-10-15T13:27:15.616Z,2.70
2022-10-15T13:29:59.159Z,2.87
2022-10-15T13:32:27.605Z,2.90
2022-10-15T13:34:56.158Z,1.90
2022-10-15T13:37:31.270Z,1.53
2022-10-15T13:40:01.799Z,2.60
2022-10-15T13:42:33.918Z,1.53
2022-10-15T13:45:05.145Z,1.33
2022-10-15T13:47:35.238Z,2.27
2022-10-15T13:50:17.555Z,2.13
2022-10-15T13:52:47.392Z,1.27
2022-10-15T13:55:19.078Z,3.40
2022-10-15T13:57:47.350Z,0.90
2022-10-15T14:00:24.413Z,0.80
2022-10-15T14:03:14.857Z,1.03
2022-10-15T14:05:42.701Z,0.70
2022-10-15T14:08:22.630Z,2.57
2022-10-15T14:10:51.091Z,0.90
2022-10-15T14:13:18.615Z,3.00
2022-10-15T14:15:52.190Z,1.40
2022-10-15T14:18:29.243Z,2.83
2022-10-15T14:20:56.784Z,0.70
2022-10-15T14:23:25.566Z,2.20
2022-10-15T14:25:54.667Z,1.43
2022-10-15T14:28:23.756Z,0.60
2022-10-15T14:30:52.972Z,0.57
2022-10-15T14:33:31.947Z,0.70
2022-10-15T14:36:08.809Z,2.20
2022-10-15T14:38:36.750Z,0.77
2022-10-15T14:41:09.139Z,1.47
2022-10-15T14:43:38.387Z,0.60
2022-10-15T14:46:08.747Z,0.70
2022-10-15T14:48:37.798Z,0.70
2022-10-15T14:51:07.315Z,0.77
2022-10-15T14:53:37.772Z,0.70
2022-10-15T14:56:08.042Z,2.10
2022-10-15T14:58:35.714Z,0.70
2022-10-15T15:01:04.708Z,0.90
2022-10-15T15:03:41.789Z,0.70
2022-10-15T15:06:09.866Z,0.60
2022-10-15T15:08:37.347Z,0.60
2022-10-15T15:11:06.702Z,0.60
2022-10-15T15:13:41.866Z,1.63
2022-10-15T15:16:10.644Z,1.47
2022-10-15T15:18:39.701Z,0.60
2022-10-15T15:21:08.799Z,0.70
2022-10-15T15:23:36.547Z,0.60
2022-10-15T15:26:05.751Z,0.93
2022-10-15T15:28:33.425Z,0.70
2022-10-15T15:31:03.074Z,0.80
2022-10-15T15:33:30.614Z,1.13
2022-10-15T15:36:05.025Z,0.60
2022-10-15T15:38:32.662Z,1.10
2022-10-15T15:41:03.283Z,1.37
2022-10-15T15:43:31.229Z,0.60
2022-10-15T15:45:59.128Z,0.70
2022-10-15T15:48:26.851Z,0.60
2022-10-15T15:50:54.484Z,5.23
2022-10-15T15:53:23.416Z,0.60
2022-10-15T15:55:51.004Z,2.20
2022-10-15T15:58:18.634Z,0.70
2022-10-15T16:00:46.207Z,1.03
2022-10-15T16:03:14.418Z,1.10
2022-10-15T16:05:42.527Z,0.70
2022-10-15T16:08:11.934Z,0.70
2022-10-15T16:10:40.908Z,0.70
2022-10-15T16:13:08.706Z,0.67
2022-10-15T16:15:36.264Z,0.70
2022-10-15T16:18:03.936Z,0.70
2022-10-15T16:20:35.818Z,1.03
2022-10-15T16:23:03.497Z,1.00
2022-10-15T16:25:31.115Z,1.27
2022-10-15T16:28:01.796Z,3.50
2022-10-15T16:30:29.600Z,4.53
2022-10-15T16:32:57.316Z,0.60
2022-10-15T16:35:25.019Z,1.17
2022-10-15T16:37:53.992Z,0.87
2022-10-15T16:40:21.573Z,0.80
2022-10-15T16:42:49.137Z,1.13
2022-10-15T16:45:18.394Z,0.90
2022-10-15T16:47:45.964Z,0.80
2022-10-15T16:50:13.581Z,1.10
2022-10-15T16:52:41.189Z,1.83
2022-10-15T16:55:09.706Z,1.57
2022-10-15T16:57:37.381Z,1.00
2022-10-15T17:00:05.726Z,1.40
2022-10-15T17:02:34.680Z,1.00
2022-10-15T17:05:02.408Z,1.80
2022-10-15T17:07:30.098Z,1.23
2022-10-15T17:09:57.789Z,0.90
2022-10-15T17:12:25.769Z,1.50
2022-10-15T17:14:53.702Z,2.40
2022-10-15T17:17:21.256Z,1.20
2022-10-15T17:19:50.239Z,1.93
2022-10-15T17:22:17.837Z,1.63
2022-10-15T17:24:45.562Z,1.30
2022-10-15T17:27:13.237Z,1.90
2022-10-15T17:29:40.815Z,9.30
2022-10-15T17:32:08.422Z,3.20
2022-10-15T17:34:36.021Z,3.67
2022-10-15T17:37:04.955Z,2.33
2022-10-15T17:39:32.506Z,2.73
2022-10-15T17:42:00.144Z,2.07
2022-10-15T17:44:27.911Z,4.03
2022-10-15T17:46:55.646Z,4.27
2022-10-15T17:49:23.211Z,1.97
2022-10-15T17:51:51.477Z,2.27
2022-10-15T17:54:20.427Z,3.37
2022-10-15T17:56:48.524Z,3.20
2022-10-15T17:59:16.218Z,5.37
2022-10-15T18:02:00.746Z,2.30
2022-10-15T18:04:29.117Z,2.70
2022-10-15T18:06:56.724Z,2.40
2022-10-15T18:09:25.803Z,2.00
2022-10-15T18:11:53.362Z,4.70
2022-10-15T18:16:53.912Z,1.90
2022-10-15T18:19:21.947Z,2.87
2022-10-15T18:21:50.002Z,3.40
2022-10-15T18:24:19.946Z,1.77
2022-10-15T18:26:48.982Z,1.27
2022-10-15T18:29:16.648Z,2.23
2022-10-15T18:31:44.366Z,3.33
2022-10-15T18:34:15.347Z,1.43
2022-10-15T18:36:43.827Z,2.10
2022-10-15T18:39:11.782Z,3.23
2022-10-15T18:41:40.209Z,2.93
2022-10-15T18:44:14.746Z,2.73
2022-10-15T18:46:44.716Z,2.97
2022-10-15T18:49:13.323Z,2.50
2022-10-15T18:51:40.833Z,2.30
2022-10-15T18:54:08.746Z,3.50
2022-10-15T18:56:36.505Z,3.03
2022-10-15T18:59:04.373Z,1.50
2022-10-15T19:01:37.255Z,1.33
2022-10-15T19:04:06.768Z,3.57
2022-10-15T19:06:37.286Z,2.97
2022-10-15T19:09:06.552Z,5.57
2022-10-15T19:11:35.231Z,2.80
2022-10-15T19:14:03.590Z,2.10
2022-10-15T19:16:31.199Z,3.30
2022-10-15T19:19:01.131Z,2.30
2022-10-15T19:21:29.054Z,1.60
2022-10-15T19:23:56.787Z,5.60
2022-10-15T19:26:24.456Z,1.50
2022-10-15T19:28:53.419Z,1.93
2022-10-15T19:31:24.299Z,2.30
2022-10-15T19:33:52.134Z,2.70
2022-10-15T19:36:22.175Z,3.90
2022-10-15T19:38:49.804Z,4.77
2022-10-15T19:41:17.444Z,2.43
2022-10-15T19:43:45.264Z,1.70
2022-10-15T19:46:13.116Z,2.57
2022-10-15T19:48:40.898Z,1.57
2022-10-15T19:51:08.767Z,2.60
2022-10-15T19:53:37.801Z,3.27
2022-10-15T19:56:07.619Z,1.80
2022-10-15T19:58:35.950Z,3.63
2022-10-15T20:01:05.346Z,1.93
2022-10-15T20:06:07.649Z,2.80
2022-10-15T20:08:37.036Z,1.67
2022-10-15T20:11:06.856Z,2.50
2022-10-15T20:13:35.115Z,5.10
2022-10-15T20:16:04.625Z,2.63
2022-10-15T20:18:32.742Z,3.20
2022-10-15T20:21:00.384Z,2.93
2022-10-15T20:23:28.525Z,2.10
2022-10-15T20:25:57.478Z,3.87
2022-10-15T20:28:25.501Z,2.50
2022-10-15T20:33:28.047Z,2.20
2022-10-15T20:35:55.734Z,3.30
2022-10-15T20:38:23.466Z,2.10
2022-10-15T20:40:51.153Z,2.20
2022-10-15T20:43:22.199Z,2.17
2022-10-15T20:45:49.689Z,2.03
2022-10-15T20:48:20.686Z,2.23
2022-10-15T20:50:49.320Z,6.10
2022-10-15T20:53:17.190Z,2.47
2022-10-15T20:55:44.864Z,2.30
2022-10-15T20:58:12.466Z,11.20
2022-10-15T21:00:41.540Z,1.50
2022-10-15T21:03:09.142Z,3.80
2022-10-15T21:05:36.684Z,1.63
2022-10-15T21:08:04.840Z,1.57
2022-10-15T21:10:32.713Z,1.33
2022-10-15T21:13:00.285Z,1.60
2022-10-15T21:15:28.032Z,1.77
2022-10-15T21:17:57.193Z,2.40
2022-10-15T21:20:25.667Z,1.83
2022-10-15T21:22:53.437Z,6.43
2022-10-15T21:25:21.311Z,6.50
2022-10-15T21:27:48.839Z,2.00
2022-10-15T21:30:16.839Z,1.73
2022-10-15T21:32:44.605Z,1.50
2022-10-15T21:35:13.750Z,2.70
2022-10-15T21:37:41.325Z,7.10
2022-10-15T21:40:10.608Z,2.40
2022-10-15T21:42:38.278Z,3.90
2022-10-15T21:45:06.546Z,1.73
2022-10-15T21:47:34.112Z,1.23
2022-10-15T21:50:01.659Z,4.30
2022-10-15T21:52:30.809Z,4.00
2022-10-15T21:54:58.364Z,3.63
2022-10-15T21:57:26.383Z,3.27
2022-10-15T21:59:54.139Z,1.30
2022-10-15T22:02:21.675Z,2.47
2022-10-15T22:04:49.234Z,2.07
2022-10-15T22:07:16.743Z,2.97
2022-10-15T22:09:45.693Z,2.00
2022-10-15T22:12:15.522Z,4.03
2022-10-15T22:14:45.432Z,4.47
2022-10-15T22:17:12.982Z,1.20
2022-10-15T22:19:40.745Z,2.10
2022-10-15T22:22:08.462Z,3.13
2022-10-15T22:24:36.112Z,2.70
2022-10-15T22:27:05.041Z,4.10
2022-10-15T22:29:34.490Z,5.33
2022-10-15T22:32:02.836Z,1.47
2022-10-15T22:34:30.337Z,0.97
2022-10-15T22:36:57.829Z,2.53
2022-10-15T22:39:25.311Z,1.10
2022-10-15T22:41:52.770Z,0.97
2022-10-15T22:44:22.277Z,1.90
2022-10-15T22:46:50.442Z,1.40
2022-10-15T22:49:19.479Z,1.43
2022-10-15T22:51:47.289Z,1.53
2022-10-15T22:54:15.756Z,8.50
2022-10-15T22:56:43.383Z,4.53
2022-10-15T22:59:10.955Z,4.97
2022-10-15T23:01:39.863Z,2.40
2022-10-15T23:04:08.005Z,1.93
2022-10-15T23:06:37.087Z,4.20
2022-10-15T23:09:06.690Z,4.77
2022-10-15T23:11:35.386Z,1.00
2022-10-15T23:14:04.916Z,1.10
2022-10-15T23:16:34.502Z,9.30
2022-10-15T23:19:05.397Z,0.90
2022-10-15T23:21:37.247Z,1.97
2022-10-15T23:24:05.888Z,1.20
2022-10-15T23:26:35.595Z,1.20
2022-10-15T23:29:04.535Z,1.00
2022-10-15T23:31:33.772Z,1.33
2022-10-15T23:34:03.430Z,1.30
2022-10-15T23:36:31.678Z,1.80
2022-10-15T23:39:00.720Z,2.33
2022-10-15T23:41:29.362Z,3.33
2022-10-15T23:43:57.233Z,1.40
2022-10-15T23:46:25.049Z,1.80
2022-10-15T23:48:52.764Z,1.60
2022-10-15T23:51:23.742Z,1.50
2022-10-15T23:53:51.959Z,2.20
2022-10-15T23:56:19.689Z,2.80
2022-10-15T23:58:48.945Z,1.50
